CFG2114 KTPA-KMIA
Flight info
| Callsign | CFG2114 |
|---|---|
| Flight time | 0h 39m |
| Altitude | 25000 |
| Route | GANDY8 SABEE FROGZ5 |
| Aircraft | A320/M-SDE3FGHIRWY/LB1 |
Departure
| Time | 2026-05-05 13:43 |
|---|---|
| Airport | Tampa International Airport (KTPA) |
Arrival
| Time | 2026-05-05 14:22 |
|---|---|
| Airport | Miami International Airport (KMIA) |
| Time | Latitude | Longitude | Altitude | Speed | Heading |
|---|---|---|---|---|---|
| 2026-05-05 13:12 | 27.97574 | -82.53666 | 35 ft | 0 kts | 33° |
| 2026-05-05 13:28 | 27.97564 | -82.53674 | 33 ft | 3 kts | 33° |
| 2026-05-05 13:29 | 27.97549 | -82.53685 | 31 ft | 3 kts | 33° |
| 2026-05-05 13:29 | 27.97534 | -82.53694 | 32 ft | 3 kts | 26° |
| 2026-05-05 13:29 | 27.97517 | -82.53702 | 31 ft | 3 kts | 349° |
| 2026-05-05 13:29 | 27.97499 | -82.53699 | 31 ft | 3 kts | 329° |
| 2026-05-05 13:30 | 27.97488 | -82.53684 | 29 ft | 1 kts | 293° |
| 2026-05-05 13:30 | 27.97488 | -82.53683 | 29 ft | 0 kts | 293° |
| 2026-05-05 13:37 | 27.97519 | -82.53755 | 33 ft | 17 kts | 301° |
| 2026-05-05 13:38 | 27.97575 | -82.53857 | 35 ft | 14 kts | 292° |
| 2026-05-05 13:38 | 27.97584 | -82.53960 | 35 ft | 13 kts | 271° |
| 2026-05-05 13:38 | 27.97567 | -82.54053 | 33 ft | 12 kts | 220° |
| 2026-05-05 13:38 | 27.97439 | -82.54072 | 35 ft | 27 kts | 181° |
| 2026-05-05 13:39 | 27.97245 | -82.54078 | 37 ft | 28 kts | 181° |
| 2026-05-05 13:39 | 27.97050 | -82.54082 | 40 ft | 28 kts | 181° |
| 2026-05-05 13:39 | 27.96851 | -82.54091 | 38 ft | 30 kts | 182° |
| 2026-05-05 13:39 | 27.96640 | -82.54098 | 35 ft | 27 kts | 181° |
| 2026-05-05 13:40 | 27.96489 | -82.54107 | 32 ft | 21 kts | 188° |
| 2026-05-05 13:40 | 27.96437 | -82.54125 | 30 ft | 0 kts | 219° |
| 2026-05-05 13:41 | 27.96429 | -82.54137 | 30 ft | 9 kts | 235° |
| 2026-05-05 13:41 | 27.96429 | -82.54248 | 30 ft | 10 kts | 327° |
| 2026-05-05 13:42 | 27.96451 | -82.54244 | 31 ft | 1 kts | 18° |
| 2026-05-05 13:42 | 27.96560 | -82.54228 | 34 ft | 51 kts | 4° |
| 2026-05-05 13:42 | 27.97206 | -82.54203 | 37 ft | 133 kts | 2° |
| 2026-05-05 13:42 | 27.98358 | -82.54164 | 197 ft | 187 kts | 2° |
| 2026-05-05 13:43 | 27.99751 | -82.54169 | 667 ft | 217 kts | 0° |
| 2026-05-05 13:43 | 28.01283 | -82.54295 | 941 ft | 211 kts | 358° |
| 2026-05-05 13:43 | 28.02688 | -82.54459 | 1130 ft | 197 kts | 356° |
| 2026-05-05 13:43 | 28.04047 | -82.54641 | 1585 ft | 196 kts | 358° |
| 2026-05-05 13:44 | 28.05408 | -82.54809 | 2300 ft | 199 kts | 358° |
| 2026-05-05 13:44 | 28.06816 | -82.55206 | 2951 ft | 225 kts | 335° |
| 2026-05-05 13:44 | 28.08075 | -82.56382 | 3424 ft | 251 kts | 307° |
| 2026-05-05 13:44 | 28.08786 | -82.58292 | 3838 ft | 272 kts | 276° |
| 2026-05-05 13:45 | 28.08579 | -82.60375 | 4681 ft | 271 kts | 246° |
| 2026-05-05 13:45 | 28.07526 | -82.62110 | 5698 ft | 269 kts | 221° |
| 2026-05-05 13:45 | 28.06031 | -82.63381 | 6674 ft | 269 kts | 214° |
| 2026-05-05 13:45 | 28.04460 | -82.64561 | 7532 ft | 273 kts | 214° |
| 2026-05-05 13:46 | 28.02844 | -82.65731 | 8340 ft | 279 kts | 214° |
| 2026-05-05 13:46 | 28.01122 | -82.66794 | 9125 ft | 287 kts | 201° |
| 2026-05-05 13:46 | 27.99115 | -82.67094 | 9891 ft | 299 kts | 176° |
| 2026-05-05 13:46 | 27.97084 | -82.66443 | 10596 ft | 307 kts | 161° |
| 2026-05-05 13:47 | 27.95080 | -82.65551 | 11347 ft | 311 kts | 161° |
| 2026-05-05 13:47 | 27.93055 | -82.64642 | 12088 ft | 316 kts | 161° |
| 2026-05-05 13:47 | 27.91000 | -82.63716 | 12821 ft | 320 kts | 162° |
| 2026-05-05 13:47 | 27.88921 | -82.62784 | 13551 ft | 324 kts | 162° |
| 2026-05-05 13:48 | 27.86810 | -82.61843 | 14218 ft | 328 kts | 162° |
| 2026-05-05 13:48 | 27.84670 | -82.60896 | 14815 ft | 333 kts | 163° |
| 2026-05-05 13:48 | 27.82492 | -82.59936 | 15420 ft | 338 kts | 163° |
| 2026-05-05 13:48 | 27.80283 | -82.58962 | 16027 ft | 343 kts | 163° |
| 2026-05-05 13:49 | 27.78049 | -82.57975 | 16619 ft | 348 kts | 163° |
| 2026-05-05 13:49 | 27.75784 | -82.56971 | 17214 ft | 353 kts | 163° |
| 2026-05-05 13:49 | 27.73493 | -82.55913 | 17811 ft | 358 kts | 162° |
| 2026-05-05 13:49 | 27.71183 | -82.54813 | 18389 ft | 363 kts | 161° |
| 2026-05-05 13:50 | 27.68812 | -82.53674 | 18593 ft | 380 kts | 161° |
| 2026-05-05 13:50 | 27.66305 | -82.52471 | 18717 ft | 398 kts | 161° |
| 2026-05-05 13:50 | 27.63702 | -82.51227 | 18923 ft | 412 kts | 161° |
| 2026-05-05 13:50 | 27.61035 | -82.49953 | 19358 ft | 419 kts | 161° |
| 2026-05-05 13:51 | 27.58340 | -82.48667 | 19847 ft | 423 kts | 161° |
| 2026-05-05 13:51 | 27.55694 | -82.47260 | 20337 ft | 430 kts | 156° |
| 2026-05-05 13:51 | 27.53041 | -82.45656 | 20832 ft | 434 kts | 156° |
| 2026-05-05 13:51 | 27.50364 | -82.44043 | 21323 ft | 439 kts | 156° |
| 2026-05-05 13:52 | 27.47657 | -82.42417 | 21815 ft | 443 kts | 156° |
| 2026-05-05 13:52 | 27.44926 | -82.40780 | 22308 ft | 447 kts | 156° |
| 2026-05-05 13:52 | 27.42163 | -82.39121 | 22793 ft | 451 kts | 156° |
| 2026-05-05 13:52 | 27.39382 | -82.37451 | 23235 ft | 456 kts | 156° |
| 2026-05-05 13:53 | 27.36566 | -82.35763 | 23666 ft | 461 kts | 156° |
| 2026-05-05 13:53 | 27.33719 | -82.34058 | 24046 ft | 465 kts | 156° |
| 2026-05-05 13:53 | 27.30875 | -82.32352 | 24429 ft | 468 kts | 156° |
| 2026-05-05 13:53 | 27.27960 | -82.30601 | 24829 ft | 471 kts | 156° |
| 2026-05-05 13:54 | 27.25065 | -82.28864 | 25000 ft | 472 kts | 156° |
| 2026-05-05 13:54 | 27.22178 | -82.27136 | 25067 ft | 464 kts | 156° |
| 2026-05-05 13:54 | 27.19346 | -82.25444 | 25067 ft | 458 kts | 156° |
| 2026-05-05 13:54 | 27.16535 | -82.23769 | 25076 ft | 456 kts | 156° |
| 2026-05-05 13:55 | 27.13736 | -82.22104 | 25069 ft | 456 kts | 156° |
| 2026-05-05 13:55 | 27.10970 | -82.20467 | 25073 ft | 454 kts | 158° |
| 2026-05-05 13:55 | 27.08053 | -82.19157 | 25075 ft | 448 kts | 169° |
| 2026-05-05 13:55 | 27.04991 | -82.18400 | 25080 ft | 453 kts | 176° |
| 2026-05-05 13:56 | 27.01868 | -82.17811 | 25076 ft | 457 kts | 176° |
| 2026-05-05 13:56 | 26.98737 | -82.17212 | 25081 ft | 458 kts | 176° |
| 2026-05-05 13:56 | 26.95597 | -82.16602 | 25079 ft | 458 kts | 176° |
| 2026-05-05 13:56 | 26.92456 | -82.15988 | 25076 ft | 458 kts | 176° |
| 2026-05-05 13:57 | 26.89324 | -82.15376 | 25078 ft | 458 kts | 176° |
| 2026-05-05 13:57 | 26.86173 | -82.14765 | 25079 ft | 457 kts | 176° |
| 2026-05-05 13:57 | 26.83038 | -82.14160 | 25079 ft | 457 kts | 176° |
| 2026-05-05 13:57 | 26.79904 | -82.13556 | 25078 ft | 457 kts | 176° |
| 2026-05-05 13:58 | 26.76769 | -82.12952 | 25077 ft | 457 kts | 176° |
| 2026-05-05 13:58 | 26.73659 | -82.12328 | 25073 ft | 449 kts | 175° |
| 2026-05-05 13:58 | 26.70614 | -82.11648 | 25071 ft | 445 kts | 174° |
| 2026-05-05 13:58 | 26.67578 | -82.10926 | 25068 ft | 443 kts | 173° |
| 2026-05-05 13:59 | 26.61607 | -82.09462 | 25064 ft | 442 kts | 173° |
| 2026-05-05 13:59 | 26.58600 | -82.08733 | 25065 ft | 441 kts | 173° |
| 2026-05-05 14:00 | 26.52759 | -82.06444 | 25064 ft | 451 kts | 154° |
| 2026-05-05 14:00 | 26.50951 | -82.05184 | 25062 ft | 455 kts | 147° |
| 2026-05-05 14:00 | 26.47745 | -82.02143 | 25065 ft | 457 kts | 140° |
| 2026-05-05 14:00 | 26.45374 | -81.99745 | 25063 ft | 457 kts | 140° |
| 2026-05-05 14:01 | 26.43022 | -81.97367 | 25064 ft | 457 kts | 140° |
| 2026-05-05 14:01 | 26.40661 | -81.94986 | 25064 ft | 458 kts | 140° |
| 2026-05-05 14:01 | 26.38306 | -81.92615 | 25063 ft | 457 kts | 140° |
| 2026-05-05 14:01 | 26.35935 | -81.90230 | 25066 ft | 457 kts | 140° |
| 2026-05-05 14:02 | 26.33592 | -81.87873 | 25062 ft | 457 kts | 140° |
| 2026-05-05 14:02 | 26.31239 | -81.85509 | 25049 ft | 457 kts | 140° |
| 2026-05-05 14:02 | 26.28878 | -81.83141 | 25057 ft | 461 kts | 140° |
| 2026-05-05 14:02 | 26.26451 | -81.80713 | 25066 ft | 469 kts | 140° |
| 2026-05-05 14:03 | 26.24204 | -81.78076 | 25061 ft | 473 kts | 128° |
| 2026-05-05 14:03 | 26.22428 | -81.74994 | 25062 ft | 470 kts | 116° |
| 2026-05-05 14:03 | 26.21028 | -81.71763 | 24999 ft | 455 kts | 115° |
| 2026-05-05 14:03 | 26.19665 | -81.68609 | 24708 ft | 448 kts | 115° |
| 2026-05-05 14:04 | 26.18321 | -81.65516 | 24339 ft | 443 kts | 115° |
| 2026-05-05 14:04 | 26.16979 | -81.62436 | 23894 ft | 441 kts | 116° |
| 2026-05-05 14:04 | 26.15644 | -81.59376 | 23446 ft | 439 kts | 116° |
| 2026-05-05 14:04 | 26.14311 | -81.56327 | 22973 ft | 435 kts | 116° |
| 2026-05-05 14:05 | 26.12991 | -81.53309 | 22526 ft | 432 kts | 116° |
| 2026-05-05 14:05 | 26.11684 | -81.50323 | 22097 ft | 429 kts | 116° |
| 2026-05-05 14:05 | 26.10385 | -81.47350 | 21678 ft | 425 kts | 116° |
| 2026-05-05 14:05 | 26.09107 | -81.44419 | 21267 ft | 422 kts | 116° |
| 2026-05-05 14:06 | 26.07826 | -81.41490 | 20859 ft | 419 kts | 116° |
| 2026-05-05 14:06 | 26.06567 | -81.38611 | 20466 ft | 416 kts | 116° |
| 2026-05-05 14:06 | 26.05308 | -81.35726 | 20073 ft | 413 kts | 116° |
| 2026-05-05 14:06 | 26.04055 | -81.32847 | 19685 ft | 410 kts | 116° |
| 2026-05-05 14:07 | 26.02818 | -81.30009 | 19304 ft | 407 kts | 116° |
| 2026-05-05 14:07 | 26.01587 | -81.27187 | 18937 ft | 404 kts | 116° |
| 2026-05-05 14:07 | 26.00364 | -81.24386 | 18566 ft | 401 kts | 116° |
| 2026-05-05 14:07 | 25.99151 | -81.21616 | 18188 ft | 398 kts | 116° |
| 2026-05-05 14:08 | 25.97945 | -81.18863 | 17777 ft | 395 kts | 116° |
| 2026-05-05 14:08 | 25.96752 | -81.16136 | 17397 ft | 392 kts | 116° |
| 2026-05-05 14:08 | 25.95569 | -81.13428 | 17031 ft | 388 kts | 116° |
| 2026-05-05 14:08 | 25.94396 | -81.10740 | 16670 ft | 385 kts | 116° |
| 2026-05-05 14:09 | 25.93230 | -81.08074 | 16306 ft | 382 kts | 116° |
| 2026-05-05 14:09 | 25.92070 | -81.05428 | 15954 ft | 378 kts | 116° |
| 2026-05-05 14:09 | 25.90929 | -81.02802 | 15607 ft | 375 kts | 115° |
| 2026-05-05 14:09 | 25.89863 | -81.00169 | 15335 ft | 370 kts | 114° |
| 2026-05-05 14:10 | 25.88873 | -80.97576 | 15201 ft | 360 kts | 113° |
| 2026-05-05 14:10 | 25.87925 | -80.95020 | 14951 ft | 355 kts | 113° |
| 2026-05-05 14:10 | 25.86987 | -80.92489 | 14659 ft | 352 kts | 113° |
| 2026-05-05 14:10 | 25.86051 | -80.89987 | 14358 ft | 350 kts | 114° |
| 2026-05-05 14:11 | 25.85120 | -80.87532 | 14057 ft | 347 kts | 114° |
| 2026-05-05 14:11 | 25.84180 | -80.85080 | 13742 ft | 345 kts | 114° |
| 2026-05-05 14:11 | 25.83239 | -80.82638 | 13410 ft | 342 kts | 114° |
| 2026-05-05 14:11 | 25.82305 | -80.80216 | 13068 ft | 340 kts | 114° |
| 2026-05-05 14:12 | 25.81689 | -80.78621 | 12845 ft | 338 kts | 114° |
| 2026-05-05 14:12 | 25.80742 | -80.76240 | 12417 ft | 337 kts | 120° |
| 2026-05-05 14:12 | 25.79283 | -80.74246 | 11988 ft | 332 kts | 144° |
| 2026-05-05 14:12 | 25.77297 | -80.73014 | 11599 ft | 324 kts | 161° |
| 2026-05-05 14:13 | 25.75258 | -80.71982 | 11294 ft | 321 kts | 155° |
| 2026-05-05 14:13 | 25.73228 | -80.70943 | 10854 ft | 320 kts | 162° |
| 2026-05-05 14:13 | 25.71145 | -80.70069 | 10473 ft | 318 kts | 163° |
| 2026-05-05 14:13 | 25.69105 | -80.69234 | 10313 ft | 308 kts | 163° |
| 2026-05-05 14:14 | 25.67126 | -80.68426 | 10203 ft | 297 kts | 163° |
| 2026-05-05 14:14 | 25.65220 | -80.67647 | 9826 ft | 297 kts | 163° |
| 2026-05-05 14:14 | 25.63282 | -80.66849 | 9358 ft | 298 kts | 163° |
| 2026-05-05 14:14 | 25.61411 | -80.65864 | 8965 ft | 300 kts | 146° |
| 2026-05-05 14:15 | 25.59736 | -80.63425 | 8443 ft | 302 kts | 110° |
| 2026-05-05 14:15 | 25.59446 | -80.61921 | 8173 ft | 302 kts | 92° |
| 2026-05-05 14:15 | 25.59771 | -80.59659 | 7772 ft | 298 kts | 65° |
| 2026-05-05 14:15 | 25.60925 | -80.57809 | 7361 ft | 291 kts | 38° |
| 2026-05-05 14:16 | 25.62657 | -80.56742 | 6959 ft | 282 kts | 11° |
| 2026-05-05 14:16 | 25.64579 | -80.56569 | 6557 ft | 276 kts | 355° |
| 2026-05-05 14:16 | 25.66497 | -80.56697 | 6128 ft | 275 kts | 353° |
| 2026-05-05 14:16 | 25.68399 | -80.56869 | 5700 ft | 272 kts | 353° |
| 2026-05-05 14:17 | 25.70275 | -80.57047 | 5077 ft | 269 kts | 353° |
| 2026-05-05 14:17 | 25.72130 | -80.57237 | 4416 ft | 267 kts | 353° |
| 2026-05-05 14:17 | 25.73938 | -80.57439 | 3781 ft | 263 kts | 354° |
| 2026-05-05 14:17 | 25.75737 | -80.57313 | 3192 ft | 258 kts | 20° |
| 2026-05-05 14:18 | 25.77127 | -80.56145 | 3026 ft | 258 kts | 57° |
| 2026-05-05 14:18 | 25.77666 | -80.54312 | 3002 ft | 241 kts | 83° |
| 2026-05-05 14:18 | 25.77745 | -80.52518 | 3007 ft | 228 kts | 88° |
| 2026-05-05 14:18 | 25.77795 | -80.50764 | 3006 ft | 226 kts | 86° |
| 2026-05-05 14:19 | 25.77863 | -80.49032 | 2989 ft | 221 kts | 86° |
| 2026-05-05 14:19 | 25.77935 | -80.47353 | 2788 ft | 216 kts | 85° |
| 2026-05-05 14:19 | 25.78007 | -80.45683 | 2530 ft | 217 kts | 87° |
| 2026-05-05 14:19 | 25.78079 | -80.44002 | 2250 ft | 217 kts | 86° |
| 2026-05-05 14:20 | 25.78151 | -80.42319 | 1958 ft | 217 kts | 85° |
| 2026-05-05 14:20 | 25.78222 | -80.40654 | 1676 ft | 212 kts | 86° |
| 2026-05-05 14:20 | 25.78287 | -80.39092 | 1440 ft | 192 kts | 85° |
| 2026-05-05 14:20 | 25.78347 | -80.37675 | 1183 ft | 173 kts | 84° |
| 2026-05-05 14:21 | 25.78401 | -80.36422 | 962 ft | 156 kts | 85° |
| 2026-05-05 14:21 | 25.78457 | -80.35263 | 766 ft | 145 kts | 83° |
| 2026-05-05 14:21 | 25.78504 | -80.34202 | 598 ft | 133 kts | 86° |
| 2026-05-05 14:21 | 25.78543 | -80.33141 | 449 ft | 142 kts | 85° |
| 2026-05-05 14:22 | 25.78587 | -80.32053 | 232 ft | 135 kts | 87° |
| 2026-05-05 14:22 | 25.78623 | -80.31041 | 39 ft | 126 kts | 86° |
| 2026-05-05 14:22 | 25.78665 | -80.30264 | 22 ft | 61 kts | 88° |
| 2026-05-05 14:22 | 25.78675 | -80.29964 | 18 ft | 46 kts | 87° |
| 2026-05-05 14:23 | 25.78717 | -80.29806 | 21 ft | 6 kts | 7° |
| 2026-05-05 14:23 | 25.78790 | -80.29751 | 23 ft | 21 kts | 70° |
| 2026-05-05 14:23 | 25.78802 | -80.29586 | 22 ft | 22 kts | 87° |
| 2026-05-05 14:23 | 25.78870 | -80.29469 | 23 ft | 15 kts | 72° |
| 2026-05-05 14:24 | 25.78826 | -80.29367 | 21 ft | 17 kts | 108° |
| 2026-05-05 14:24 | 25.78840 | -80.29177 | 19 ft | 17 kts | 44° |
| 2026-05-05 14:24 | 25.78839 | -80.29127 | 20 ft | 6 kts | 110° |
| 2026-05-05 14:24 | 25.78833 | -80.28992 | 20 ft | 32 kts | 79° |
| 2026-05-05 14:25 | 25.78888 | -80.28822 | 18 ft | 17 kts | 100° |
| 2026-05-05 14:25 | 25.78867 | -80.28719 | 19 ft | 17 kts | 112° |
| 2026-05-05 14:25 | 25.78876 | -80.28610 | 20 ft | 14 kts | 85° |
| 2026-05-05 14:25 | 25.78884 | -80.28400 | 26 ft | 50 kts | 87° |
| 2026-05-05 14:26 | 25.78906 | -80.28062 | 26 ft | 23 kts | 82° |
| 2026-05-05 14:26 | 25.78875 | -80.27894 | 25 ft | 23 kts | 86° |
| 2026-05-05 14:26 | 25.78975 | -80.27841 | 24 ft | 18 kts | 14° |
| 2026-05-05 14:26 | 25.79098 | -80.27782 | 28 ft | 19 kts | 8° |
| 2026-05-05 14:27 | 25.79231 | -80.27762 | 24 ft | 15 kts | 16° |
| 2026-05-05 14:27 | 25.79260 | -80.27720 | 23 ft | 0 kts | 65° |